< < Back
Terminal Aerodrome Forecast


Current Version              Previous Versions:   1  2  3  4  5  6  7  8  9  

Terminal Aerodrome Forecast

633
FTUS42 KMLB 290544
TAFMCO
TAF
KMCO 290544Z 2906/3006 30007KT P6SM SKC
     FM291500 35010KT P6SM SKC
     FM292300 04004KT P6SM SKC=



Latest METAR

447
SAUS70 KWBC 291900 RRF
MTRMCO
METAR KMCO 291853Z 07006G16KT 10SM FEW045 21/03 A3032 RMK AO2 SLP264
T02110028


USA.gov is the U.S. government's official web portal to all federal, state and local government web resources and services.